createdAt,value
2023-05-07T00:07:39.267Z,0.00
2023-05-07T00:17:39.357Z,0.00
2023-05-07T00:27:39.537Z,0.00
2023-05-07T00:37:39.688Z,0.00
2023-05-07T00:47:39.879Z,0.00
2023-05-07T00:57:40.012Z,0.00
2023-05-07T01:07:40.188Z,0.00
2023-05-07T01:17:40.348Z,0.00
2023-05-07T01:27:40.517Z,0.00
2023-05-07T01:37:40.757Z,0.00
2023-05-07T01:47:40.963Z,0.00
2023-05-07T01:57:41.111Z,0.00
2023-05-07T02:07:41.272Z,0.00
2023-05-07T02:17:41.461Z,0.00
2023-05-07T02:27:41.607Z,0.00
2023-05-07T02:37:41.770Z,0.00
2023-05-07T02:47:42.010Z,0.00
2023-05-07T02:57:42.149Z,0.00
2023-05-07T03:07:42.332Z,0.00
2023-05-07T03:17:42.608Z,0.00
2023-05-07T03:27:42.773Z,0.00
2023-05-07T03:37:42.918Z,0.00
2023-05-07T03:47:43.115Z,4.00
2023-05-07T03:57:43.230Z,8.00
2023-05-07T04:07:43.404Z,24.00
2023-05-07T04:17:43.588Z,44.00
2023-05-07T04:27:43.735Z,72.00
2023-05-07T04:37:43.874Z,104.00
2023-05-07T04:47:44.061Z,144.00
2023-05-07T04:57:44.183Z,200.00
2023-05-07T05:07:44.339Z,240.00
2023-05-07T05:17:44.534Z,276.00
2023-05-07T05:27:44.689Z,304.00
2023-05-07T05:37:44.854Z,348.00
2023-05-07T05:47:45.057Z,576.00
2023-05-07T05:57:45.229Z,632.00
2023-05-07T06:07:45.395Z,668.00
2023-05-07T06:17:45.600Z,708.00
2023-05-07T06:27:45.741Z,776.00
2023-05-07T06:37:45.894Z,768.00
2023-05-07T06:47:46.102Z,708.00
2023-05-07T06:57:46.234Z,824.00
2023-05-07T07:07:46.403Z,732.00
2023-05-07T07:17:46.581Z,844.00
2023-05-07T07:27:46.727Z,836.00
2023-05-07T07:37:46.865Z,716.00
2023-05-07T07:47:47.096Z,812.00
2023-05-07T07:57:47.273Z,752.00
2023-05-07T08:07:47.420Z,948.00
2023-05-07T08:17:47.716Z,956.00
2023-05-07T08:27:47.663Z,1212.00
2023-05-07T08:37:47.826Z,1464.00
2023-05-07T08:47:48.085Z,1212.00
2023-05-07T08:57:48.284Z,1596.00
2023-05-07T09:07:48.467Z,1784.00
2023-05-07T09:17:48.683Z,1572.00
2023-05-07T09:27:48.822Z,1352.00
2023-05-07T09:37:48.983Z,2328.00
2023-05-07T09:47:49.233Z,2040.00
2023-05-07T09:57:49.352Z,2404.00
2023-05-07T10:07:49.531Z,2196.00
2023-05-07T10:17:49.827Z,2924.00
2023-05-07T10:27:49.801Z,1732.00
2023-05-07T10:37:49.957Z,1408.00
2023-05-07T10:47:50.291Z,1228.00
2023-05-07T10:57:50.214Z,1168.00
2023-05-07T11:07:50.385Z,1192.00
2023-05-07T11:17:50.594Z,1452.00
2023-05-07T11:27:50.730Z,1724.00
2023-05-07T11:37:50.930Z,2204.00
2023-05-07T11:47:51.128Z,1904.00
2023-05-07T11:57:51.294Z,3280.00
2023-05-07T12:07:51.466Z,2604.00
2023-05-07T12:17:51.819Z,3440.00
2023-05-07T12:27:51.775Z,3476.00
2023-05-07T12:37:51.938Z,3524.00
2023-05-07T12:47:52.104Z,2804.00
2023-05-07T12:57:52.247Z,3292.00
2023-05-07T13:07:52.426Z,3304.00
2023-05-07T13:17:52.656Z,3100.00
2023-05-07T13:28:02.745Z,3408.00
2023-05-07T13:37:54.023Z,3400.00
2023-05-07T13:47:53.212Z,3392.00
2023-05-07T13:57:54.681Z,3132.00
2023-05-07T14:07:53.473Z,2060.00
2023-05-07T14:17:53.701Z,3140.00
2023-05-07T14:27:53.924Z,3192.00
2023-05-07T14:37:54.107Z,732.00
2023-05-07T14:47:54.297Z,448.00
2023-05-07T14:57:54.476Z,284.00
2023-05-07T15:07:57.520Z,176.00
2023-05-07T15:17:54.897Z,136.00
2023-05-07T15:27:55.167Z,92.00
2023-05-07T15:37:55.444Z,52.00
2023-05-07T15:47:55.736Z,44.00
2023-05-07T15:57:55.695Z,40.00
2023-05-07T16:07:55.928Z,40.00
2023-05-07T16:17:56.177Z,32.00
2023-05-07T16:27:56.518Z,24.00
2023-05-07T16:37:56.519Z,28.00
2023-05-07T16:47:56.833Z,16.00
2023-05-07T16:57:56.863Z,8.00
2023-05-07T17:07:57.115Z,8.00
2023-05-07T17:17:57.390Z,8.00
2023-05-07T17:27:57.386Z,8.00
2023-05-07T17:37:57.640Z,4.00
2023-05-07T17:47:57.690Z,4.00
2023-05-07T17:57:57.963Z,4.00
2023-05-07T18:07:58.002Z,0.00
2023-05-07T18:17:58.249Z,4.00
2023-05-07T18:27:58.520Z,0.00
2023-05-07T18:37:58.594Z,0.00
2023-05-07T18:47:58.927Z,0.00
2023-05-07T18:57:58.904Z,0.00
2023-05-07T19:07:59.164Z,0.00
2023-05-07T19:17:59.494Z,0.00
2023-05-07T19:27:59.452Z,0.00
2023-05-07T19:37:59.666Z,0.00
2023-05-07T19:47:59.965Z,0.00
2023-05-07T19:58:00.257Z,0.00
2023-05-07T20:08:00.317Z,0.00
2023-05-07T20:18:00.614Z,0.00
2023-05-07T20:28:00.456Z,0.00
2023-05-07T20:38:00.684Z,0.00
2023-05-07T20:48:00.912Z,0.00
2023-05-07T20:58:00.868Z,0.00
2023-05-07T21:08:00.862Z,0.00
2023-05-07T21:18:01.064Z,0.00
2023-05-07T21:28:01.214Z,0.00
2023-05-07T21:38:01.400Z,0.00
2023-05-07T21:48:01.616Z,0.00
2023-05-07T21:58:05.855Z,0.00
2023-05-07T22:08:02.054Z,0.00
2023-05-07T22:18:02.290Z,0.00
2023-05-07T22:28:02.425Z,0.00
2023-05-07T22:38:02.629Z,0.00
2023-05-07T22:48:02.933Z,0.00
2023-05-07T22:58:02.950Z,0.00
2023-05-07T23:08:03.107Z,0.00
2023-05-07T23:18:03.348Z,0.00
2023-05-07T23:28:03.520Z,0.00
2023-05-07T23:38:03.687Z,0.00
2023-05-07T23:48:03.869Z,0.00
2023-05-07T23:58:04.017Z,0.00
